Time;durP1;ratioP1;P1;durP2;ratioP2;P2;SDS_P1;SDS_P2;PMS_P1;PMS_P2;Temp;Humidity;BMP_temperature;BMP_pressure;BME280_temperature;BME280_humidity;BME280_pressure;Samples;Min_cycle;Max_cycle;Signal;HPM_P1;HPM_P2
2023/09/18 00:02:16;;;;;;;5.30;4.60;;;25.20;62.40;;;;;;229544;1254;22278;-57
2023/09/18 00:07:19;;;;;;;5.10;4.60;;;25.30;62.40;;;;;;229602;1247;22352;-58
2023/09/18 00:12:21;;;;;;;5.80;5.20;;;25.30;62.40;;;;;;229348;1253;269398;-56
2023/09/18 00:17:24;;;;;;;5.10;4.70;;;25.30;62.40;;;;;;229558;1251;22278;-57
2023/09/18 00:22:28;;;;;;;7.60;5.00;;;25.30;62.40;;;;;;229601;1250;22334;-57
2023/09/18 00:27:32;;;;;;;5.40;4.70;;;25.30;62.40;;;;;;229570;1247;22401;-58
2023/09/18 00:32:35;;;;;;;5.10;4.70;;;25.30;62.40;;;;;;229613;1247;22896;-58
2023/09/18 00:37:39;;;;;;;5.10;4.70;;;25.30;62.30;;;;;;229551;1248;22312;-58
2023/09/18 00:42:42;;;;;;;5.90;4.90;;;25.30;62.30;;;;;;229487;1248;22298;-57
2023/09/18 00:47:45;;;;;;;5.40;5.00;;;25.30;62.30;;;;;;229527;1251;22256;-58
2023/09/18 00:52:49;;;;;;;5.30;4.90;;;25.30;62.50;;;;;;229546;1248;22319;-57
2023/09/18 00:57:52;;;;;;;5.30;4.90;;;25.30;62.20;;;;;;229413;1253;22288;-57
2023/09/18 01:02:55;;;;;;;5.90;5.50;;;25.30;62.20;;;;;;229499;1249;22291;-58
2023/09/18 01:07:58;;;;;;;4.60;4.30;;;25.30;62.30;;;;;;229521;1254;22241;-57
2023/09/18 01:13:15;;;;;;;4.90;4.60;;;25.30;62.20;;;;;;229505;1248;22335;-57
2023/09/18 01:18:18;;;;;;;4.90;4.60;;;25.20;62.30;;;;;;229653;1247;22266;-58
2023/09/18 01:23:21;;;;;;;11.20;4.70;;;25.20;62.40;;;;;;229589;1248;22360;-58
2023/09/18 01:28:24;;;;;;;5.10;4.70;;;25.20;62.40;;;;;;229534;1254;22470;-58
2023/09/18 01:33:28;;;;;;;5.60;5.00;;;25.10;62.40;;;;;;229524;1248;22372;-58
2023/09/18 01:38:31;;;;;;;4.90;4.60;;;25.20;62.30;;;;;;229608;1248;23025;-58
2023/09/18 01:43:35;;;;;;;5.40;5.00;;;25.10;62.70;;;;;;229580;1254;22266;-58
2023/09/18 01:48:45;;;;;;;4.80;4.40;;;25.10;62.40;;;;;;229545;1247;22344;-57
2023/09/18 01:53:48;;;;;;;5.10;4.70;;;25.10;62.40;;;;;;229484;1249;22275;-58
2023/09/18 01:58:51;;;;;;;4.70;4.40;;;25.10;62.50;;;;;;229506;1254;22294;-58
2023/09/18 02:03:55;;;;;;;17.90;4.90;;;25.10;62.50;;;;;;229497;1248;23183;-57
2023/09/18 02:09:18;;;;;;;4.80;4.40;;;25.10;62.60;;;;;;229572;1252;22272;-57
2023/09/18 02:14:21;;;;;;;4.80;4.50;;;25.10;62.60;;;;;;229525;1254;22273;-58
2023/09/18 02:19:24;;;;;;;5.20;4.70;;;25.10;62.60;;;;;;229596;1254;22286;-58
2023/09/18 02:24:27;;;;;;;4.50;4.00;;;25.00;62.70;;;;;;229573;1254;22701;-58
2023/09/18 02:29:29;;;;;;;4.80;4.40;;;25.00;62.60;;;;;;226390;1248;22551;-58
2023/09/18 02:34:33;;;;;;;4.90;4.40;;;25.00;62.80;;;;;;229535;1254;22285;-58
2023/09/18 02:39:36;;;;;;;4.80;4.30;;;25.00;62.90;;;;;;229532;1247;22300;-57
2023/09/18 02:44:38;;;;;;;4.90;4.50;;;25.00;63.40;;;;;;229550;1263;22241;-58
2023/09/18 02:49:42;;;;;;;4.30;4.10;;;25.00;62.70;;;;;;229549;1253;22267;-56
2023/09/18 02:54:44;;;;;;;5.10;4.80;;;25.00;62.60;;;;;;229558;1263;22261;-57
2023/09/18 02:59:48;;;;;;;4.40;4.10;;;25.00;62.50;;;;;;229474;1263;22490;-57
2023/09/18 03:04:51;;;;;;;4.30;4.00;;;25.00;62.40;;;;;;229562;1263;22348;-58
2023/09/18 03:09:54;;;;;;;5.00;4.60;;;25.00;62.50;;;;;;229506;1263;22272;-59
2023/09/18 03:14:57;;;;;;;4.70;4.30;;;25.00;62.30;;;;;;229575;1263;22379;-57
2023/09/18 03:20:00;;;;;;;4.40;4.10;;;25.00;62.50;;;;;;229649;1263;22343;-59
2023/09/18 03:25:03;;;;;;;4.40;4.10;;;25.00;62.30;;;;;;229565;1263;22289;-56
2023/09/18 03:30:06;;;;;;;4.80;4.40;;;25.00;62.30;;;;;;225954;1248;26645;-56
2023/09/18 03:35:17;;;;;;;4.60;4.20;;;24.90;62.30;;;;;;229603;1247;23180;-58
2023/09/18 03:40:20;;;;;;;4.00;3.70;;;24.90;62.50;;;;;;229545;1258;22289;-56
2023/09/18 03:45:23;;;;;;;5.10;4.70;;;24.90;62.50;;;;;;229348;1253;22322;-55
2023/09/18 03:50:27;;;;;;;4.20;3.80;;;24.90;62.30;;;;;;229601;1247;22307;-55
2023/09/18 03:55:30;;;;;;;4.50;4.10;;;24.90;62.30;;;;;;229576;1250;22282;-54
2023/09/18 04:00:33;;;;;;;4.70;4.20;;;25.00;62.40;;;;;;229619;1247;22271;-55
2023/09/18 04:05:36;;;;;;;5.30;4.00;;;24.90;62.30;;;;;;229570;1248;22294;-56
2023/09/18 04:10:39;;;;;;;4.80;4.30;;;24.90;62.30;;;;;;229589;1247;22286;-57
2023/09/18 04:15:41;;;;;;;4.30;4.00;;;24.90;62.20;;;;;;229571;1249;22305;-56
2023/09/18 04:20:44;;;;;;;4.30;4.00;;;24.90;62.20;;;;;;229626;1248;22253;-56
2023/09/18 04:25:48;;;;;;;5.00;4.60;;;24.90;62.40;;;;;;229582;1263;22340;-57
2023/09/18 04:30:50;;;;;;;4.30;4.00;;;24.90;62.20;;;;;;229679;1248;23061;-56
2023/09/18 04:35:54;;;;;;;4.60;4.30;;;24.90;62.30;;;;;;229575;1249;22246;-56
2023/09/18 04:40:58;;;;;;;4.30;4.00;;;24.90;62.20;;;;;;229667;1247;22369;-56
2023/09/18 04:46:04;;;;;;;4.30;4.00;;;24.90;62.20;;;;;;229576;1252;22636;-56
2023/09/18 04:51:10;;;;;;;4.00;3.70;;;24.90;62.30;;;;;;229622;1263;23586;-56
2023/09/18 04:56:13;;;;;;;5.10;4.70;;;24.90;62.20;;;;;;229620;1249;22284;-56
2023/09/18 05:01:15;;;;;;;4.50;4.20;;;24.90;62.30;;;;;;229640;1247;22933;-56
2023/09/18 05:06:18;;;;;;;4.20;4.00;;;24.80;62.20;;;;;;225507;1249;25476;-56
2023/09/18 05:11:21;;;;;;;4.60;4.30;;;24.80;62.30;;;;;;229548;1247;22346;-57
2023/09/18 05:16:24;;;;;;;4.70;4.30;;;24.80;62.50;;;;;;229621;1263;22275;-56
2023/09/18 05:21:28;;;;;;;4.20;3.90;;;24.80;62.40;;;;;;226085;1248;23471;-55
2023/09/18 05:26:31;;;;;;;4.10;3.80;;;24.80;62.30;;;;;;229567;1249;22262;-55
2023/09/18 05:31:34;;;;;;;4.50;4.10;;;24.80;62.70;;;;;;229645;1248;22358;-57
2023/09/18 05:36:37;;;;;;;4.00;3.80;;;24.80;62.30;;;;;;229718;1247;23875;-57
2023/09/18 05:41:40;;;;;;;6.60;4.50;;;24.80;62.30;;;;;;229649;1248;22243;-57
2023/09/18 05:46:42;;;;;;;4.70;4.40;;;24.90;62.30;;;;;;221501;1247;22529;-56
2023/09/18 05:51:48;;;;;;;5.40;4.50;;;24.80;62.90;;;;;;229582;1251;22299;-57
2023/09/18 05:56:51;;;;;;;5.80;4.40;;;24.80;62.80;;;;;;229602;1263;22288;-56
2023/09/18 06:01:54;;;;;;;5.60;4.10;;;24.90;62.30;;;;;;229606;1263;22269;-57
2023/09/18 06:06:57;;;;;;;4.90;4.30;;;24.90;62.80;;;;;;226283;1263;22605;-56
2023/09/18 06:12:00;;;;;;;4.70;4.40;;;25.00;62.50;;;;;;222683;1249;22527;-56
2023/09/18 06:17:04;;;;;;;3.90;3.70;;;24.90;63.30;;;;;;229313;1251;22304;-55
2023/09/18 06:22:07;;;;;;;5.00;4.50;;;24.90;63.00;;;;;;225653;1247;24562;-54
2023/09/18 06:27:11;;;;;;;7.90;4.50;;;25.00;62.90;;;;;;229524;1260;22261;-55
2023/09/18 06:32:13;;;;;;;6.40;4.60;;;25.00;63.00;;;;;;222290;1255;24303;-55
2023/09/18 06:37:18;;;;;;;4.70;4.30;;;25.00;63.10;;;;;;222834;1264;24265;-55
2023/09/18 06:42:21;;;;;;;5.70;5.10;;;25.00;62.90;;;;;;229503;1263;22287;-55
2023/09/18 06:47:33;;;;;;;11.60;4.90;;;25.20;62.70;;;;;;228322;1264;24317;-56
2023/09/18 06:52:36;;;;;;;5.40;4.80;;;25.10;63.10;;;;;;222032;1255;24288;-57
2023/09/18 06:57:40;;;;;;;6.90;5.20;;;25.20;63.40;;;;;;223647;1254;22624;-58
2023/09/18 07:02:44;;;;;;;9.10;5.40;;;25.20;63.40;;;;;;227276;1263;22574;-58
2023/09/18 07:07:47;;;;;;;5.40;5.00;;;25.20;63.40;;;;;;222517;1264;22537;-57
2023/09/18 07:12:50;;;;;;;7.90;5.50;;;25.20;63.30;;;;;;220686;1261;22734;-54
2023/09/18 07:17:53;;;;;;;5.50;5.00;;;25.20;63.40;;;;;;229536;1263;22252;-57
2023/09/18 07:22:56;;;;;;;7.30;6.30;;;25.00;63.70;;;;;;229507;1263;22740;-57
2023/09/18 07:27:59;;;;;;;15.30;7.20;;;25.00;63.70;;;;;;229441;1263;24956;-56
2023/09/18 07:33:01;;;;;;;7.50;6.90;;;24.70;64.70;;;;;;229514;1264;23061;-56
2023/09/18 07:38:04;;;;;;;7.60;6.90;;;24.80;64.60;;;;;;229459;1263;22274;-56
2023/09/18 07:43:07;;;;;;;10.50;7.70;;;24.80;64.60;;;;;;229570;1263;22388;-56
2023/09/18 07:48:09;;;;;;;10.60;7.70;;;24.80;64.50;;;;;;226742;1260;22533;-51
2023/09/18 07:53:13;;;;;;;8.70;7.70;;;24.90;64.60;;;;;;229707;1249;22278;-53
2023/09/18 07:58:16;;;;;;;9.10;8.20;;;24.90;64.80;;;;;;229641;1249;22222;-51
2023/09/18 08:03:18;;;;;;;9.10;8.10;;;24.90;64.70;;;;;;227516;1263;26696;-54
2023/09/18 08:08:23;;;;;;;11.50;7.90;;;24.70;65.60;;;;;;222464;1256;22617;-54
2023/09/18 08:13:26;;;;;;;8.90;8.00;;;24.70;65.30;;;;;;229577;1263;22801;-54
2023/09/18 08:18:29;;;;;;;9.10;8.20;;;24.70;66.20;;;;;;229432;1263;22294;-53
2023/09/18 08:23:32;;;;;;;9.40;8.60;;;24.90;65.10;;;;;;224582;1260;22692;-53
2023/09/18 08:28:38;;;;;;;9.90;9.10;;;24.90;65.20;;;;;;229518;1263;22430;-54
2023/09/18 08:33:41;;;;;;;9.60;8.60;;;25.00;66.00;;;;;;229562;1263;22284;-52
2023/09/18 08:38:43;;;;;;;10.00;9.20;;;25.20;65.80;;;;;;229493;1263;22382;-54
2023/09/18 08:43:48;;;;;;;9.90;8.80;;;25.00;66.30;;;;;;229432;1263;22296;-54
2023/09/18 08:48:52;;;;;;;26.50;10.00;;;25.10;67.10;;;;;;226415;1249;22518;-52
2023/09/18 08:53:56;;;;;;;9.90;9.00;;;25.20;66.20;;;;;;229500;1253;22340;-54
2023/09/18 08:59:00;;;;;;;9.20;8.50;;;25.00;66.50;;;;;;229531;1263;23169;-55
2023/09/18 09:04:04;;;;;;;10.50;9.60;;;25.00;67.20;;;;;;228106;1261;24236;-53
2023/09/18 09:09:08;;;;;;;11.80;10.60;;;25.20;66.10;;;;;;229404;1263;22306;-54
2023/09/18 09:14:18;;;;;;;13.30;10.10;;;25.10;66.70;;;;;;229439;1263;23158;-55
2023/09/18 09:19:29;;;;;;;11.30;9.80;;;25.40;66.20;;;;;;229497;1263;22342;-56
2023/09/18 09:24:40;;;;;;;15.60;11.40;;;25.60;65.30;;;;;;223934;1247;25370;-58
2023/09/18 09:29:57;;;;;;;15.70;12.60;;;25.20;64.50;;;;;;229482;1263;22340;-59
2023/09/18 09:35:02;;;;;;;12.80;11.60;;;25.40;65.30;;;;;;229283;1262;22274;-57
2023/09/18 09:40:10;;;;;;;13.30;12.00;;;25.60;65.10;;;;;;229519;1263;22305;-54
2023/09/18 09:45:18;;;;;;;12.90;11.60;;;25.70;64.80;;;;;;229517;1263;22265;-55
2023/09/18 09:50:21;;;;;;;13.60;12.40;;;25.80;64.70;;;;;;229453;1263;22275;-52
2023/09/18 09:55:33;;;;;;;15.30;12.40;;;25.90;65.10;;;;;;229546;1252;22259;-55
2023/09/18 10:00:56;;;;;;;13.90;12.70;;;25.90;65.40;;;;;;229463;1263;22344;-54
2023/09/18 10:06:00;;;;;;;13.10;11.30;;;25.90;65.20;;;;;;229520;1263;22345;-52
2023/09/18 10:11:11;;;;;;;14.50;12.80;;;25.80;65.70;;;;;;229503;1261;22289;-56
2023/09/18 10:16:19;;;;;;;13.70;12.30;;;26.00;64.60;;;;;;229473;1263;22289;-53
2023/09/18 10:21:32;;;;;;;16.10;13.00;;;26.20;64.50;;;;;;229492;1262;23681;-56
2023/09/18 10:26:46;;;;;;;13.20;11.90;;;26.30;64.40;;;;;;229533;1249;22299;-55
2023/09/18 10:31:52;;;;;;;17.10;11.40;;;26.20;64.40;;;;;;229560;1249;22591;-55
2023/09/18 10:36:54;;;;;;;16.00;10.90;;;26.20;63.60;;;;;;229552;1263;23954;-56
2023/09/18 10:42:01;;;;;;;12.70;11.30;;;26.30;64.10;;;;;;229570;1263;23010;-56
2023/09/18 10:47:06;;;;;;;14.50;12.80;;;26.30;63.40;;;;;;229618;1263;22653;-55
2023/09/18 10:52:13;;;;;;;13.20;11.90;;;26.20;63.80;;;;;;229639;1256;22275;-55
2023/09/18 10:57:19;;;;;;;13.30;12.20;;;26.40;63.40;;;;;;229567;1263;22263;-55
2023/09/18 11:02:28;;;;;;;16.60;11.70;;;26.40;63.90;;;;;;229535;1248;22250;-54
2023/09/18 11:07:31;;;;;;;14.90;12.60;;;26.40;64.20;;;;;;229527;1263;22224;-55
2023/09/18 11:12:44;;;;;;;65.00;24.80;;;26.50;63.90;;;;;;229610;1248;22633;-55
2023/09/18 11:17:59;;;;;;;52.80;21.80;;;26.50;64.00;;;;;;229542;1263;22293;-55
2023/09/18 11:23:14;;;;;;;23.90;14.70;;;26.40;65.10;;;;;;229571;1252;22307;-54
2023/09/18 11:28:24;;;;;;;15.80;13.60;;;26.40;64.40;;;;;;229549;1262;22302;-55
2023/09/18 11:33:31;;;;;;;15.40;13.70;;;26.50;63.80;;;;;;229578;1263;22245;-55
2023/09/18 11:38:50;;;;;;;18.20;12.80;;;26.60;63.90;;;;;;229538;1256;24045;-54
2023/09/18 11:44:28;;;;;;;13.90;12.40;;;26.70;63.20;;;;;;229664;1252;22282;-53
2023/09/18 11:49:32;;;;;;;13.50;12.30;;;26.80;62.90;;;;;;225685;1263;24263;-54
2023/09/18 11:54:35;;;;;;;13.00;11.60;;;26.70;62.90;;;;;;229551;1252;23425;-55
2023/09/18 11:59:39;;;;;;;13.40;12.10;;;26.70;62.70;;;;;;229559;1261;22285;-54
2023/09/18 12:04:48;;;;;;;15.40;11.40;;;27.00;62.50;;;;;;229538;1248;23079;-56
2023/09/18 12:09:50;;;;;;;10.90;10.00;;;27.10;61.80;;;;;;229520;1263;22248;-55
2023/09/18 12:14:53;;;;;;;10.90;10.00;;;27.10;61.20;;;;;;229405;1252;228031;-55
2023/09/18 12:19:56;;;;;;;11.20;9.90;;;27.10;61.00;;;;;;229607;1252;22332;-56
2023/09/18 12:25:12;;;;;;;9.90;8.90;;;27.20;60.50;;;;;;229603;1247;22269;-57
2023/09/18 12:30:20;;;;;;;9.60;8.60;;;27.10;59.50;;;;;;229620;1252;22282;-57
2023/09/18 12:35:30;;;;;;;8.10;7.30;;;27.40;56.60;;;;;;229602;1252;22427;-52
2023/09/18 12:40:34;;;;;;;8.20;7.50;;;27.60;55.30;;;;;;229661;1249;22355;-50
2023/09/18 12:45:38;;;;;;;9.10;7.00;;;27.60;55.10;;;;;;229553;1251;22918;-53
2023/09/18 12:50:42;;;;;;;7.40;6.70;;;27.70;55.20;;;;;;229504;1263;22244;-56
2023/09/18 12:55:46;;;;;;;8.30;6.50;;;27.50;56.30;;;;;;229375;1250;23425;-52
2023/09/18 13:00:50;;;;;;;10.70;5.90;;;27.60;54.20;;;;;;229440;1248;22366;-49
2023/09/18 13:06:19;;;;;;;9.50;6.20;;;27.50;54.10;;;;;;229480;1252;22328;-54
2023/09/18 13:11:25;;;;;;;7.70;7.00;;;27.60;54.60;;;;;;222734;1255;22567;-50
2023/09/18 13:16:28;;;;;;;7.60;6.30;;;27.50;56.00;;;;;;229438;1253;22282;-50
2023/09/18 13:21:31;;;;;;;11.20;6.50;;;27.40;56.00;;;;;;229475;1248;22256;-52
2023/09/18 13:26:34;;;;;;;9.30;6.00;;;27.40;56.40;;;;;;229442;1252;23085;-50
2023/09/18 13:31:37;;;;;;;6.40;5.90;;;27.60;56.80;;;;;;229452;1252;22274;-54
2023/09/18 13:36:41;;;;;;;7.00;6.40;;;27.60;57.10;;;;;;229512;1252;22243;-51
2023/09/18 13:41:44;;;;;;;7.40;5.90;;;27.60;56.70;;;;;;229577;1250;22243;-51
2023/09/18 13:46:47;;;;;;;9.30;6.20;;;27.50;57.00;;;;;;229475;1247;23085;-50
2023/09/18 13:51:50;;;;;;;8.40;5.90;;;27.50;57.10;;;;;;229509;1252;22260;-49
2023/09/18 13:56:55;;;;;;;10.20;6.40;;;27.50;56.90;;;;;;229546;1248;22357;-52
2023/09/18 14:02:00;;;;;;;8.70;6.20;;;27.50;56.90;;;;;;229554;1252;22330;-52
2023/09/18 14:07:04;;;;;;;6.80;6.20;;;27.60;56.70;;;;;;229561;1250;22311;-49
2023/09/18 14:12:07;;;;;;;8.50;6.60;;;27.40;56.90;;;;;;229518;1249;22279;-51
2023/09/18 14:17:11;;;;;;;6.50;6.00;;;27.20;56.90;;;;;;229527;1252;23052;-52
2023/09/18 14:22:14;;;;;;;7.30;5.80;;;27.20;57.10;;;;;;229533;1252;22347;-54
2023/09/18 14:27:17;;;;;;;12.30;6.70;;;27.10;57.10;;;;;;229587;1252;23051;-53
2023/09/18 14:32:20;;;;;;;7.90;6.50;;;27.20;56.90;;;;;;229607;1252;22740;-49
2023/09/18 14:37:23;;;;;;;7.10;6.20;;;27.20;57.00;;;;;;229564;1260;22541;-51
2023/09/18 14:42:27;;;;;;;8.20;6.10;;;27.10;57.30;;;;;;229638;1252;22351;-48
2023/09/18 14:47:31;;;;;;;10.50;6.50;;;27.30;57.40;;;;;;229392;1263;22317;-50
2023/09/18 14:52:35;;;;;;;10.40;7.90;;;27.20;56.50;;;;;;229560;1263;22448;-49
2023/09/18 14:57:39;;;;;;;10.90;7.60;;;27.20;57.20;;;;;;223511;1263;22518;-50
2023/09/18 15:02:42;;;;;;;8.60;7.10;;;27.10;57.30;;;;;;229578;1260;22265;-51
2023/09/18 15:07:46;;;;;;;8.60;7.70;;;27.10;58.10;;;;;;229529;1264;22280;-51
2023/09/18 15:12:48;;;;;;;8.90;7.10;;;27.20;57.50;;;;;;229427;1252;22335;-51
2023/09/18 15:17:52;;;;;;;9.30;8.20;;;27.20;57.50;;;;;;229547;1263;22278;-49
2023/09/18 15:22:55;;;;;;;9.20;8.20;;;27.10;57.70;;;;;;229543;1252;23509;-48
2023/09/18 15:27:59;;;;;;;11.70;7.50;;;27.10;57.80;;;;;;229518;1263;22966;-51
2023/09/18 15:33:02;;;;;;;8.90;7.40;;;27.00;58.20;;;;;;229540;1253;22344;-51
2023/09/18 15:38:06;;;;;;;7.90;7.20;;;27.10;58.10;;;;;;229538;1260;23155;-51
2023/09/18 15:43:09;;;;;;;9.60;8.00;;;27.10;58.10;;;;;;229484;1264;22645;-51
2023/09/18 15:48:13;;;;;;;9.00;8.20;;;27.10;57.80;;;;;;229556;1252;22235;-52
2023/09/18 15:53:16;;;;;;;9.90;8.20;;;27.00;58.10;;;;;;229476;1252;22278;-49
2023/09/18 15:58:23;;;;;;;14.30;8.40;;;27.10;58.10;;;;;;229399;1264;23149;-50
2023/09/18 16:03:29;;;;;;;9.70;8.60;;;27.20;58.40;;;;;;229171;1260;22335;-50
2023/09/18 16:08:37;;;;;;;15.60;11.30;;;27.10;58.00;;;;;;229495;1262;23898;-54
2023/09/18 16:13:47;;;;;;;15.60;11.40;;;27.20;57.90;;;;;;229518;1263;22260;-52
2023/09/18 16:18:56;;;;;;;14.40;11.20;;;26.90;58.10;;;;;;229563;1253;22258;-54
2023/09/18 16:24:08;;;;;;;14.10;12.20;;;26.90;58.70;;;;;;229465;1254;22454;-57
2023/09/18 16:29:16;;;;;;;11.90;9.90;;;26.60;58.60;;;;;;223815;1264;24240;-58
2023/09/18 16:34:23;;;;;;;9.70;8.90;;;26.40;59.40;;;;;;229474;1264;22293;-58
2023/09/18 16:39:32;;;;;;;10.60;9.60;;;26.20;59.80;;;;;;229428;1248;23458;-57
2023/09/18 16:44:42;;;;;;;11.60;9.00;;;26.10;59.60;;;;;;229470;1263;23201;-57
2023/09/18 16:49:50;;;;;;;15.00;10.10;;;26.00;59.60;;;;;;229508;1256;23093;-56
2023/09/18 16:55:03;;;;;;;12.90;10.70;;;26.00;59.90;;;;;;229426;1264;22249;-57
2023/09/18 17:00:18;;;;;;;15.30;10.20;;;25.90;60.20;;;;;;229407;1247;23044;-58
2023/09/18 17:05:30;;;;;;;11.10;10.00;;;25.80;60.40;;;;;;229164;1263;22286;-58
2023/09/18 17:10:39;;;;;;;11.40;10.30;;;25.70;60.70;;;;;;229367;1248;23034;-56
2023/09/18 17:15:47;;;;;;;16.70;10.90;;;25.60;61.10;;;;;;229495;1247;22197;-56
2023/09/18 17:20:51;;;;;;;11.60;10.40;;;25.50;61.40;;;;;;229366;1247;23646;-56
2023/09/18 17:25:55;;;;;;;11.80;10.70;;;25.80;60.70;;;;;;229387;1254;22446;-58
2023/09/18 17:31:07;;;;;;;16.10;10.90;;;26.20;60.10;;;;;;229459;1263;22350;-56
2023/09/18 17:36:11;;;;;;;11.80;10.20;;;26.10;60.40;;;;;;229437;1263;22288;-58
2023/09/18 17:41:17;;;;;;;13.10;10.60;;;26.10;60.20;;;;;;229522;1257;22449;-57
2023/09/18 17:46:21;;;;;;;13.10;10.50;;;26.10;60.50;;;;;;229566;1247;22246;-52
2023/09/18 17:51:24;;;;;;;11.80;10.30;;;26.00;60.90;;;;;;229489;1264;22306;-51
2023/09/18 17:56:27;;;;;;;19.90;12.00;;;26.00;61.30;;;;;;229558;1248;22932;-53
2023/09/18 18:01:30;;;;;;;14.90;10.70;;;26.00;60.90;;;;;;229418;1264;22246;-56
2023/09/18 18:06:35;;;;;;;14.00;11.30;;;25.90;61.40;;;;;;229547;1248;23024;-54
2023/09/18 18:11:39;;;;;;;13.50;12.20;;;25.50;61.70;;;;;;224852;1255;25998;-50
2023/09/18 18:16:43;;;;;;;13.40;11.80;;;25.50;62.10;;;;;;229539;1251;22257;-51
2023/09/18 18:21:47;;;;;;;12.20;10.90;;;25.60;62.40;;;;;;229616;1248;22682;-52
2023/09/18 18:26:53;;;;;;;14.40;12.30;;;25.60;62.60;;;;;;229577;1263;22268;-53
2023/09/18 18:31:56;;;;;;;14.10;12.50;;;25.60;62.80;;;;;;229522;1263;23052;-52
2023/09/18 18:37:03;;;;;;;22.60;12.80;;;25.60;62.90;;;;;;229590;1263;22242;-56
2023/09/18 18:42:07;;;;;;;16.20;11.90;;;25.50;62.80;;;;;;229575;1249;22262;-53
2023/09/18 18:47:12;;;;;;;18.00;11.80;;;25.40;63.20;;;;;;229516;1263;22636;-53
2023/09/18 18:52:17;;;;;;;20.10;13.80;;;25.30;62.90;;;;;;229605;1248;23100;-54
2023/09/18 18:57:22;;;;;;;25.40;20.00;;;25.10;63.60;;;;;;229546;1263;22282;-56
2023/09/18 19:02:28;;;;;;;18.70;16.90;;;25.10;63.10;;;;;;229516;1249;22336;-55
2023/09/18 19:07:33;;;;;;;20.90;14.40;;;25.20;62.80;;;;;;229559;1264;23076;-58
2023/09/18 19:12:38;;;;;;;18.30;13.10;;;25.20;62.70;;;;;;229530;1249;22264;-55
2023/09/18 19:17:47;;;;;;;15.70;14.00;;;25.10;63.00;;;;;;229550;1249;22279;-56
2023/09/18 19:22:58;;;;;;;13.40;11.90;;;25.10;62.90;;;;;;229569;1257;23048;-54
2023/09/18 19:28:05;;;;;;;13.30;12.20;;;25.00;63.10;;;;;;229631;1251;22301;-56
2023/09/18 19:33:10;;;;;;;15.10;12.50;;;25.00;63.30;;;;;;229548;1251;22263;-57
2023/09/18 19:38:16;;;;;;;20.80;12.70;;;24.90;63.80;;;;;;229608;1248;24139;-56
2023/09/18 19:43:21;;;;;;;13.10;11.70;;;25.00;63.90;;;;;;229630;1248;22347;-52
2023/09/18 19:48:28;;;;;;;16.10;12.00;;;25.10;63.60;;;;;;229680;1263;22268;-52
2023/09/18 19:53:34;;;;;;;13.50;12.20;;;24.90;63.80;;;;;;229582;1253;23455;-53
2023/09/18 19:58:37;;;;;;;13.20;11.90;;;24.90;63.80;;;;;;229542;1249;22585;-54
2023/09/18 20:03:41;;;;;;;14.20;12.40;;;24.80;64.00;;;;;;229560;1248;22270;-54
2023/09/18 20:08:46;;;;;;;14.50;13.10;;;24.80;64.30;;;;;;229557;1251;23122;-51
2023/09/18 20:13:50;;;;;;;18.70;13.30;;;24.80;64.40;;;;;;229591;1247;22361;-50
2023/09/18 20:18:54;;;;;;;24.00;14.40;;;24.90;64.30;;;;;;229607;1249;22284;-49
2023/09/18 20:23:59;;;;;;;21.30;12.70;;;24.90;63.90;;;;;;229647;1247;22410;-51
2023/09/18 20:29:02;;;;;;;22.60;13.50;;;24.90;64.10;;;;;;229612;1248;22347;-52
2023/09/18 20:34:05;;;;;;;16.60;13.20;;;24.90;64.20;;;;;;229589;1251;22271;-52
2023/09/18 20:39:09;;;;;;;16.10;14.50;;;24.90;64.30;;;;;;229658;1249;22263;-53
2023/09/18 20:44:12;;;;;;;18.60;13.10;;;24.80;64.50;;;;;;229597;1249;22653;-51
2023/09/18 20:49:15;;;;;;;15.10;12.30;;;24.90;64.20;;;;;;229550;1251;22307;-55
2023/09/18 20:54:18;;;;;;;17.50;14.00;;;24.90;64.00;;;;;;229552;1247;22259;-56
2023/09/18 20:59:21;;;;;;;14.90;13.30;;;25.00;63.60;;;;;;229560;1247;22267;-56
2023/09/18 21:04:23;;;;;;;15.10;13.40;;;25.10;63.30;;;;;;229593;1247;22681;-55
2023/09/18 21:09:27;;;;;;;14.90;13.20;;;25.20;63.50;;;;;;229573;1248;22271;-54
2023/09/18 21:14:30;;;;;;;15.60;14.10;;;25.60;64.30;;;;;;229532;1248;22724;-59
2023/09/18 21:19:33;;;;;;;17.90;15.10;;;25.60;65.20;;;;;;229587;1247;22328;-58
2023/09/18 21:24:35;;;;;;;18.10;13.40;;;25.60;65.30;;;;;;221410;1249;22512;-51
2023/09/18 21:29:38;;;;;;;14.60;13.10;;;25.40;64.20;;;;;;229330;1255;22288;-55
2023/09/18 21:34:41;;;;;;;15.50;13.80;;;25.20;64.00;;;;;;229439;1251;22286;-55
2023/09/18 21:39:43;;;;;;;18.40;13.90;;;25.20;64.80;;;;;;229420;1251;22293;-56
2023/09/18 21:44:47;;;;;;;14.80;13.30;;;25.20;64.00;;;;;;229559;1249;22294;-53
2023/09/18 21:49:49;;;;;;;14.30;12.90;;;25.20;63.90;;;;;;225780;1248;23897;-54
2023/09/18 21:54:53;;;;;;;14.50;12.90;;;25.20;63.90;;;;;;229506;1247;22282;-54
2023/09/18 21:59:55;;;;;;;17.50;14.20;;;25.20;64.10;;;;;;229560;1249;22358;-53
2023/09/18 22:04:58;;;;;;;14.70;13.10;;;25.40;64.20;;;;;;229510;1249;22343;-53
2023/09/18 22:10:01;;;;;;;15.40;13.80;;;25.50;64.00;;;;;;229587;1251;22268;-54
2023/09/18 22:15:06;;;;;;;14.60;13.30;;;25.50;63.90;;;;;;229547;1251;24078;-52
2023/09/18 22:20:16;;;;;;;15.10;13.80;;;25.60;63.50;;;;;;229621;1249;22280;-54
2023/09/18 22:25:20;;;;;;;14.70;13.40;;;25.60;63.80;;;;;;229608;1263;22268;-55
2023/09/18 22:30:22;;;;;;;13.60;12.40;;;25.40;63.60;;;;;;229647;1248;22496;-54
2023/09/18 22:35:25;;;;;;;14.00;12.50;;;25.40;63.80;;;;;;229573;1247;22279;-54
2023/09/18 22:40:28;;;;;;;15.70;11.90;;;25.40;63.70;;;;;;222457;1250;22489;-53
2023/09/18 22:46:08;;;;;;;12.80;11.40;;;25.30;63.90;;;;;;229531;1252;22283;-54
2023/09/18 22:51:48;;;;;;;13.00;11.70;;;25.40;63.80;;;;;;229608;1263;22287;-54
2023/09/18 22:56:51;;;;;;;11.30;10.30;;;25.50;63.90;;;;;;229600;1248;22271;-53
2023/09/18 23:01:54;;;;;;;11.20;10.20;;;25.60;64.20;;;;;;229557;1263;22336;-52
2023/09/18 23:06:59;;;;;;;11.70;10.50;;;25.70;63.90;;;;;;229546;1263;22259;-53
2023/09/18 23:12:06;;;;;;;11.80;10.70;;;25.80;63.80;;;;;;229620;1262;22926;-52
2023/09/18 23:17:09;;;;;;;10.60;9.60;;;25.70;63.70;;;;;;229662;1263;22331;-54
2023/09/18 23:22:12;;;;;;;10.80;9.80;;;25.70;63.90;;;;;;229610;1263;22248;-54
2023/09/18 23:27:16;;;;;;;10.40;8.20;;;25.70;64.10;;;;;;229626;1263;22307;-53
2023/09/18 23:32:19;;;;;;;12.10;8.70;;;25.70;63.80;;;;;;229632;1263;22273;-53
2023/09/18 23:37:23;;;;;;;9.20;8.20;;;25.70;64.10;;;;;;229600;1263;22338;-54
2023/09/18 23:42:28;;;;;;;8.60;7.60;;;25.70;64.10;;;;;;229615;1263;22246;-53
2023/09/18 23:47:31;;;;;;;10.70;8.00;;;25.80;64.60;;;;;;229638;1249;22372;-54
2023/09/18 23:52:33;;;;;;;8.60;6.90;;;25.80;64.00;;;;;;229611;1263;22282;-52
2023/09/18 23:57:38;;;;;;;9.10;7.80;;;25.70;63.50;;;;;;229621;1249;23655;-54
